Time;durP1;ratioP1;P1;durP2;ratioP2;P2;SDS_P1;SDS_P2;PMS_P1;PMS_P2;Temp;Humidity;BMP_temperature;BMP_pressure;BME280_temperature;BME280_humidity;BME280_pressure;Samples;Min_cycle;Max_cycle;Signal;HPM_P1;HPM_P2
2022/12/14 00:02:21;;;;;;;9.48;7.00;;;1.00;75.10;;;;;;5043265;28;20036;-81
2022/12/14 00:04:46;;;;;;;8.50;6.85;;;1.00;75.10;;;;;;5076183;28;20426;-79
2022/12/14 00:07:12;;;;;;;9.23;6.68;;;1.00;75.10;;;;;;5059669;28;20028;-79
2022/12/14 00:09:38;;;;;;;8.25;6.90;;;1.00;75.10;;;;;;5060044;28;20036;-79
2022/12/14 00:12:03;;;;;;;8.80;6.88;;;1.00;75.20;;;;;;5076770;28;20374;-79
2022/12/14 00:14:29;;;;;;;9.25;6.35;;;1.00;75.20;;;;;;5077611;28;20040;-79
2022/12/14 00:16:55;;;;;;;9.63;7.07;;;1.00;75.10;;;;;;5075784;28;20053;-78
2022/12/14 00:19:20;;;;;;;9.77;6.55;;;1.00;75.10;;;;;;5077310;28;20031;-77
2022/12/14 00:21:46;;;;;;;10.32;6.80;;;1.00;75.10;;;;;;5075589;28;20227;-79
2022/12/14 00:24:12;;;;;;;9.23;6.93;;;1.00;75.10;;;;;;5059353;28;20113;-79
2022/12/14 00:26:37;;;;;;;9.10;6.82;;;1.00;75.10;;;;;;5059189;28;20028;-78
2022/12/14 00:29:03;;;;;;;10.35;7.03;;;1.00;75.20;;;;;;5077528;28;20052;-80
2022/12/14 00:31:30;;;;;;;8.63;6.75;;;1.00;75.10;;;;;;5059786;28;20029;-79
2022/12/14 00:33:57;;;;;;;9.63;6.97;;;1.00;75.10;;;;;;5059209;28;20094;-78
2022/12/14 00:36:23;;;;;;;9.68;7.40;;;1.00;75.10;;;;;;5076013;28;20207;-79
2022/12/14 00:38:48;;;;;;;8.10;6.40;;;1.00;75.10;;;;;;5059304;28;20028;-79
2022/12/14 00:41:14;;;;;;;8.98;7.07;;;1.10;75.20;;;;;;5076793;28;20063;-78
2022/12/14 00:43:40;;;;;;;9.40;6.88;;;1.00;75.10;;;;;;5058983;28;20031;-80
2022/12/14 00:46:06;;;;;;;9.07;6.93;;;1.00;75.10;;;;;;5075732;28;20036;-79
2022/12/14 00:48:32;;;;;;;9.15;6.78;;;1.10;75.10;;;;;;5042608;28;20024;-78
2022/12/14 00:50:58;;;;;;;10.05;7.82;;;1.00;75.10;;;;;;5058927;28;20066;-79
2022/12/14 00:53:24;;;;;;;8.70;7.00;;;1.00;75.10;;;;;;5042352;28;20477;-79
2022/12/14 00:55:51;;;;;;;10.05;6.70;;;1.00;75.10;;;;;;5076588;28;20024;-79
2022/12/14 00:58:19;;;;;;;8.93;6.75;;;1.00;75.10;;;;;;5059142;28;20118;-79
2022/12/14 01:00:47;;;;;;;9.23;6.05;;;1.00;75.20;;;;;;5042778;28;20029;-79
2022/12/14 01:03:13;;;;;;;8.75;6.70;;;1.00;75.10;;;;;;5042346;28;20036;-79
2022/12/14 01:05:39;;;;;;;9.40;6.50;;;1.00;75.10;;;;;;5075256;28;20028;-79
2022/12/14 01:08:06;;;;;;;9.10;6.20;;;1.00;75.10;;;;;;5058451;28;20024;-79
2022/12/14 01:10:32;;;;;;;8.70;6.47;;;1.00;75.10;;;;;;5075189;28;20043;-79
2022/12/14 01:12:57;;;;;;;8.65;6.22;;;1.00;75.10;;;;;;5058224;28;20036;-79
2022/12/14 01:15:23;;;;;;;9.35;6.70;;;1.10;75.10;;;;;;5058144;28;20082;-80
2022/12/14 01:17:52;;;;;;;11.07;7.18;;;1.10;75.10;;;;;;5041341;28;20493;-79
2022/12/14 01:20:18;;;;;;;8.48;7.30;;;1.10;75.10;;;;;;5074858;28;20055;-79
2022/12/14 01:22:43;;;;;;;8.55;6.53;;;1.00;75.10;;;;;;5075534;28;20040;-79
2022/12/14 01:25:09;;;;;;;8.70;5.97;;;1.00;75.10;;;;;;5058842;28;20032;-78
2022/12/14 01:27:35;;;;;;;8.82;6.25;;;1.10;75.10;;;;;;5057993;28;20467;-79
2022/12/14 01:30:02;;;;;;;8.68;6.40;;;1.00;75.10;;;;;;5074583;28;20056;-78
2022/12/14 01:32:28;;;;;;;8.93;6.45;;;1.00;75.10;;;;;;5058626;28;20044;-79
2022/12/14 01:34:54;;;;;;;9.00;6.68;;;1.10;75.10;;;;;;5075612;28;20036;-79
2022/12/14 01:37:19;;;;;;;8.82;6.13;;;1.10;75.10;;;;;;5041765;28;20017;-79
2022/12/14 01:39:46;;;;;;;8.82;6.97;;;1.10;75.10;;;;;;5075099;28;20024;-78
2022/12/14 01:42:13;;;;;;;9.50;7.20;;;1.10;75.10;;;;;;5057879;28;20037;-79
2022/12/14 01:44:39;;;;;;;7.68;6.20;;;1.10;75.10;;;;;;5057859;28;20037;-79
2022/12/14 01:47:17;;;;;;;8.70;6.78;;;1.10;75.10;;;;;;5075593;28;20119;-78
2022/12/14 01:49:48;;;;;;;10.15;6.28;;;1.10;75.10;;;;;;5057516;28;20462;-79
2022/12/14 01:52:20;;;;;;;7.68;5.43;;;1.10;75.10;;;;;;5075869;28;20036;-79
2022/12/14 01:54:54;;;;;;;9.45;6.70;;;1.10;75.10;;;;;;5057257;28;20029;-79
2022/12/14 01:57:26;;;;;;;8.70;6.30;;;1.10;75.10;;;;;;5074286;28;20032;-79
2022/12/14 01:59:54;;;;;;;9.18;6.15;;;1.10;75.10;;;;;;5057315;28;20024;-78
2022/12/14 02:02:21;;;;;;;7.85;6.18;;;1.10;75.10;;;;;;5057283;28;20499;-79
2022/12/14 02:04:52;;;;;;;8.52;6.22;;;1.10;75.10;;;;;;5075378;28;20020;-79
2022/12/14 02:07:19;;;;;;;8.70;6.72;;;1.10;75.10;;;;;;5074023;28;20127;-79
2022/12/14 02:09:46;;;;;;;8.07;5.93;;;1.10;75.10;;;;;;5041207;28;20033;-79
2022/12/14 02:12:13;;;;;;;8.02;5.93;;;1.10;75.10;;;;;;5041029;28;20032;-79
2022/12/14 02:14:40;;;;;;;8.68;6.75;;;1.10;75.10;;;;;;5074089;28;20112;-79
2022/12/14 02:17:07;;;;;;;8.05;6.00;;;1.10;75.10;;;;;;5073471;28;20045;-79
2022/12/14 02:19:34;;;;;;;8.45;6.18;;;1.10;75.00;;;;;;5056591;28;20170;-79
2022/12/14 02:22:35;;;;;;;8.10;6.38;;;1.10;75.70;;;;;;5073805;28;20032;-79
2022/12/14 02:25:30;;;;;;;8.60;6.28;;;1.10;75.10;;;;;;5074417;28;20025;-79
2022/12/14 02:28:20;;;;;;;8.27;5.77;;;1.10;75.10;;;;;;5046577;28;20052;-79
2022/12/14 02:31:13;;;;;;;7.70;5.88;;;1.10;75.10;;;;;;5073568;28;20086;-79
2022/12/14 02:34:05;;;;;;;8.57;6.00;;;1.10;75.10;;;;;;5043567;28;20465;-79
2022/12/14 02:36:52;;;;;;;8.63;6.35;;;1.10;75.10;;;;;;5075567;28;20025;-79
2022/12/14 02:39:21;;;;;;;9.10;5.60;;;1.10;75.10;;;;;;5076847;28;20028;-79
2022/12/14 02:41:53;;;;;;;7.43;5.78;;;1.00;75.10;;;;;;5061928;28;20532;-79
2022/12/14 02:44:31;;;;;;;8.13;5.65;;;1.00;75.10;;;;;;5074732;28;20036;-79
2022/12/14 02:47:17;;;;;;;8.25;6.10;;;1.10;75.10;;;;;;5059315;28;20132;-79
2022/12/14 02:50:17;;;;;;;7.38;5.82;;;1.00;75.10;;;;;;5060913;28;20033;-79
2022/12/14 02:53:02;;;;;;;8.68;6.05;;;1.10;75.10;;;;;;5073405;28;20034;-79
2022/12/14 02:55:37;;;;;;;8.23;5.67;;;1.00;75.70;;;;;;5073055;28;20040;-79
2022/12/14 02:58:12;;;;;;;7.10;5.60;;;1.00;75.10;;;;;;5040133;28;20058;-79
2022/12/14 03:00:38;;;;;;;8.10;5.55;;;1.00;75.00;;;;;;5057326;28;20029;-79
2022/12/14 03:03:05;;;;;;;7.50;5.32;;;1.00;75.00;;;;;;5073986;28;20043;-79
2022/12/14 03:05:31;;;;;;;7.65;6.05;;;1.00;75.10;;;;;;5073859;28;20024;-79
2022/12/14 03:08:00;;;;;;;8.40;6.50;;;1.00;75.10;;;;;;5039624;28;20192;-79
2022/12/14 03:10:49;;;;;;;7.93;5.70;;;1.00;75.10;;;;;;5039266;28;20035;-79
2022/12/14 03:13:30;;;;;;;7.65;5.43;;;1.10;75.10;;;;;;5072933;28;20032;-77
2022/12/14 03:16:06;;;;;;;7.25;5.47;;;1.10;75.10;;;;;;5074273;28;20029;-79
2022/12/14 03:18:53;;;;;;;7.70;5.22;;;1.00;75.10;;;;;;5058347;28;20044;-79
2022/12/14 03:21:26;;;;;;;7.40;5.20;;;1.00;75.10;;;;;;5057383;28;20044;-79
2022/12/14 03:23:54;;;;;;;9.05;6.00;;;1.00;75.10;;;;;;5056129;28;20055;-79
2022/12/14 03:26:24;;;;;;;9.45;5.90;;;1.00;75.10;;;;;;5055995;28;20016;-79
2022/12/14 03:29:13;;;;;;;6.47;4.88;;;1.00;75.10;;;;;;5055196;28;20031;-79
2022/12/14 03:31:45;;;;;;;8.30;5.75;;;1.00;75.10;;;;;;5073776;28;20040;-79
2022/12/14 03:34:14;;;;;;;7.43;5.43;;;1.00;75.10;;;;;;5038849;28;20024;-79
2022/12/14 03:37:14;;;;;;;7.47;5.22;;;1.00;75.10;;;;;;5072173;28;20025;-79
2022/12/14 03:39:42;;;;;;;6.85;5.10;;;1.00;75.10;;;;;;5052494;28;20043;-80
2022/12/14 03:42:22;;;;;;;7.53;5.43;;;1.00;75.10;;;;;;5056029;28;20040;-79
2022/12/14 03:45:01;;;;;;;6.60;4.97;;;1.00;75.10;;;;;;5055302;28;20032;-79
2022/12/14 03:47:48;;;;;;;6.85;5.57;;;1.00;75.10;;;;;;5072216;28;20386;-79
2022/12/14 03:50:32;;;;;;;6.55;5.20;;;1.00;75.10;;;;;;5072249;28;20028;-78
2022/12/14 03:53:12;;;;;;;7.07;4.78;;;1.00;75.10;;;;;;5072068;28;20028;-79
2022/12/14 03:56:19;;;;;;;6.75;4.97;;;1.00;75.10;;;;;;5073577;28;20090;-78
2022/12/14 03:59:04;;;;;;;7.22;4.90;;;1.00;75.10;;;;;;5011530;28;20093;-79
2022/12/14 04:01:40;;;;;;;6.07;4.80;;;0.90;75.10;;;;;;5011976;28;20481;-79
2022/12/14 04:04:29;;;;;;;8.27;5.35;;;1.00;75.10;;;;;;5036772;28;20067;-77
2022/12/14 04:07:33;;;;;;;6.55;5.07;;;0.90;75.10;;;;;;5073564;28;20033;-78
2022/12/14 04:09:59;;;;;;;8.13;6.00;;;0.90;75.10;;;;;;5032666;28;20508;-78
2022/12/14 04:21:20;;;;;;;7.72;5.85;;;0.90;75.10;;;;;;5073463;28;20043;-78
2022/12/14 04:26:44;;;;;;;7.72;5.65;;;0.90;75.10;;;;;;5072611;28;20039;-78
2022/12/14 04:32:19;;;;;;;8.13;5.32;;;0.90;75.10;;;;;;5072952;28;20028;-78
2022/12/14 04:34:49;;;;;;;7.60;5.43;;;0.90;75.10;;;;;;5072192;28;20535;-79
2022/12/14 04:37:19;;;;;;;6.78;5.57;;;0.90;75.10;;;;;;5055220;28;20099;-79
2022/12/14 04:40:22;;;;;;;7.45;5.57;;;0.90;75.10;;;;;;5054828;28;20067;-78
2022/12/14 04:42:57;;;;;;;7.20;4.88;;;0.90;75.10;;;;;;5042506;28;20044;-79
2022/12/14 04:45:34;;;;;;;6.13;4.10;;;0.90;75.10;;;;;;5059514;28;20082;-79
2022/12/14 04:48:20;;;;;;;7.47;5.57;;;0.90;75.10;;;;;;5076356;28;20107;-78
2022/12/14 04:50:54;;;;;;;8.25;5.68;;;0.90;75.10;;;;;;5076903;28;20032;-79
2022/12/14 04:53:25;;;;;;;7.38;5.15;;;0.80;75.00;;;;;;5077256;28;20033;-79
2022/12/14 04:55:56;;;;;;;6.75;4.75;;;0.90;75.10;;;;;;5059110;28;20042;-78
2022/12/14 04:58:25;;;;;;;7.32;5.30;;;0.80;75.10;;;;;;5076168;28;20033;-79
2022/12/14 05:01:21;;;;;;;7.85;5.80;;;0.90;75.10;;;;;;5058576;28;20033;-78
2022/12/14 05:04:38;;;;;;;6.68;5.10;;;0.90;75.10;;;;;;5058626;28;20473;-78
2022/12/14 05:07:21;;;;;;;6.63;4.70;;;0.80;75.00;;;;;;5025604;28;20088;-78
2022/12/14 05:10:27;;;;;;;5.90;4.32;;;0.80;75.00;;;;;;5059067;28;20060;-77
2022/12/14 05:13:02;;;;;;;;;;;0.80;75.10;;;;;;5058835;28;20036;-79
2022/12/14 05:15:38;;;;;;;6.43;4.57;;;0.70;75.00;;;;;;5058591;28;19995;-79
2022/12/14 05:18:04;;;;;;;6.53;4.75;;;0.80;75.00;;;;;;5058355;28;20053;-78
2022/12/14 05:20:30;;;;;;;6.68;5.00;;;0.70;75.00;;;;;;5074857;28;20084;-78
2022/12/14 05:22:56;;;;;;;7.13;4.78;;;0.70;75.00;;;;;;5041679;28;20434;-78
2022/12/14 05:25:22;;;;;;;6.50;4.80;;;0.80;75.10;;;;;;5075025;28;20059;-78
2022/12/14 05:27:48;;;;;;;6.78;5.20;;;0.80;75.10;;;;;;5058246;28;20161;-79
2022/12/14 05:30:13;;;;;;;6.85;5.35;;;0.80;75.10;;;;;;5041607;28;20028;-79
2022/12/14 05:32:39;;;;;;;7.43;4.90;;;0.70;75.00;;;;;;5058082;28;20068;-79
2022/12/14 05:35:06;;;;;;;7.15;4.85;;;0.80;75.10;;;;;;5076295;28;20133;-77
2022/12/14 05:37:32;;;;;;;6.65;5.15;;;0.80;75.10;;;;;;5058148;28;20102;-78
2022/12/14 05:39:57;;;;;;;7.00;4.80;;;0.70;75.00;;;;;;5074655;28;20024;-78
2022/12/14 05:42:23;;;;;;;7.00;4.90;;;0.70;75.00;;;;;;5074334;28;20497;-79
2022/12/14 05:44:49;;;;;;;5.97;4.43;;;0.80;75.10;;;;;;5074344;28;20033;-79
2022/12/14 05:47:15;;;;;;;7.05;5.43;;;0.70;75.00;;;;;;5074337;28;20358;-79
2022/12/14 05:49:41;;;;;;;6.82;5.43;;;0.80;75.00;;;;;;5041069;28;20074;-79
2022/12/14 05:52:06;;;;;;;7.57;5.28;;;0.70;75.00;;;;;;5057906;28;20036;-78
2022/12/14 05:54:32;;;;;;;7.47;5.35;;;0.70;75.00;;;;;;5057380;28;20480;-79
2022/12/14 05:56:58;;;;;;;7.68;5.60;;;0.70;75.00;;;;;;5056720;28;20029;-79
2022/12/14 05:59:24;;;;;;;5.95;4.18;;;0.70;75.00;;;;;;5074827;28;20036;-79
2022/12/14 06:01:50;;;;;;;6.25;4.32;;;0.70;75.60;;;;;;5074602;28;20508;-79
2022/12/14 06:04:16;;;;;;;7.75;4.90;;;0.70;75.00;;;;;;5056945;28;20500;-79
2022/12/14 06:06:42;;;;;;;6.72;4.93;;;0.70;75.00;;;;;;5073814;28;20036;-79
2022/12/14 06:09:09;;;;;;;7.20;5.07;;;0.70;75.00;;;;;;5056905;28;20032;-78
2022/12/14 06:11:40;;;;;;;7.10;5.32;;;0.70;75.00;;;;;;5057163;28;20040;-78
2022/12/14 06:14:10;;;;;;;6.38;4.32;;;0.70;75.00;;;;;;5057179;28;20044;-79
2022/12/14 06:16:40;;;;;;;6.80;5.15;;;0.70;75.00;;;;;;5057317;28;20020;-80
2022/12/14 06:19:07;;;;;;;7.13;4.70;;;0.70;75.00;;;;;;5057499;28;20028;-79
2022/12/14 06:21:36;;;;;;;6.82;4.88;;;0.70;75.00;;;;;;5073847;28;20048;-78
2022/12/14 06:24:02;;;;;;;7.75;5.32;;;0.70;75.00;;;;;;5056664;28;20078;-78
2022/12/14 06:26:30;;;;;;;5.90;4.75;;;0.70;75.00;;;;;;5056972;28;20536;-79
2022/12/14 06:28:56;;;;;;;6.60;4.82;;;0.70;75.00;;;;;;5056410;28;20036;-79
2022/12/14 06:31:28;;;;;;;7.18;5.22;;;0.70;75.00;;;;;;5073069;28;20150;-78
2022/12/14 06:33:55;;;;;;;7.38;5.15;;;0.70;75.00;;;;;;5074947;28;20025;-77
2022/12/14 06:36:25;;;;;;;8.05;5.53;;;0.70;75.00;;;;;;5073909;28;20128;-77
2022/12/14 06:38:52;;;;;;;7.55;4.85;;;0.70;75.00;;;;;;5073534;28;20029;-78
2022/12/14 06:41:18;;;;;;;7.03;5.43;;;0.70;74.90;;;;;;5072864;28;20055;-78
2022/12/14 06:43:44;;;;;;;7.28;5.60;;;0.60;74.90;;;;;;5073134;28;20039;-78
2022/12/14 06:46:12;;;;;;;7.63;5.70;;;0.70;75.00;;;;;;5072975;28;20362;-78
2022/12/14 06:48:38;;;;;;;6.78;5.13;;;0.60;74.90;;;;;;5039717;28;20029;-77
2022/12/14 06:51:05;;;;;;;6.45;4.80;;;0.60;74.90;;;;;;5055924;28;20480;-77
2022/12/14 06:53:32;;;;;;;6.97;5.00;;;0.60;74.90;;;;;;5055918;28;20503;-78
2022/12/14 06:56:06;;;;;;;8.50;5.13;;;0.60;75.00;;;;;;5056496;28;20086;-78
2022/12/14 06:58:32;;;;;;;6.57;4.90;;;0.60;75.00;;;;;;5072912;28;20397;-78
2022/12/14 07:01:02;;;;;;;6.45;4.68;;;0.60;74.90;;;;;;5073027;28;20275;-78
2022/12/14 07:03:27;;;;;;;7.45;4.68;;;0.60;74.90;;;;;;5055390;28;20039;-77
2022/12/14 07:05:58;;;;;;;7.30;4.65;;;0.60;74.90;;;;;;5057354;28;20024;-78
2022/12/14 07:08:24;;;;;;;7.55;5.03;;;0.60;75.00;;;;;;5073789;28;20112;-81
2022/12/14 07:10:51;;;;;;;7.28;5.18;;;0.60;74.90;;;;;;5039141;28;20024;-79
2022/12/14 07:13:17;;;;;;;6.88;4.93;;;0.60;74.90;;;;;;5056073;28;20036;-79
2022/12/14 07:15:43;;;;;;;8.98;5.80;;;0.60;74.90;;;;;;5072875;28;20419;-78
2022/12/14 07:18:09;;;;;;;7.55;4.80;;;0.50;74.90;;;;;;5072360;28;20098;-78
2022/12/14 07:20:35;;;;;;;6.88;5.30;;;0.50;74.90;;;;;;5072425;28;20037;-78
2022/12/14 07:23:00;;;;;;;6.68;5.13;;;0.50;74.90;;;;;;5072632;28;20047;-78
2022/12/14 07:25:26;;;;;;;6.57;4.70;;;0.50;74.90;;;;;;5056156;28;20032;-78
2022/12/14 07:27:52;;;;;;;6.88;4.97;;;0.50;74.90;;;;;;5055439;28;20130;-78
2022/12/14 07:30:18;;;;;;;7.60;4.80;;;0.50;74.90;;;;;;5038924;28;20027;-79
2022/12/14 07:32:44;;;;;;;7.20;5.13;;;0.50;74.90;;;;;;5072297;28;20106;-79
2022/12/14 07:35:10;;;;;;;6.72;4.88;;;0.50;74.90;;;;;;5056061;28;20461;-79
2022/12/14 07:37:36;;;;;;;6.80;4.80;;;0.50;74.90;;;;;;5072293;28;20112;-79
2022/12/14 07:40:03;;;;;;;7.10;4.90;;;0.40;74.90;;;;;;5039421;28;20034;-79
2022/12/14 07:42:29;;;;;;;6.95;5.20;;;0.40;74.90;;;;;;5072419;28;20048;-78
2022/12/14 07:45:00;;;;;;;7.20;4.63;;;0.40;74.90;;;;;;5056208;28;20362;-78
2022/12/14 07:47:28;;;;;;;6.47;4.70;;;0.40;74.90;;;;;;5056790;28;20381;-80
2022/12/14 07:49:54;;;;;;;7.57;5.18;;;0.40;74.90;;;;;;5073125;28;20472;-79
2022/12/14 07:52:20;;;;;;;6.72;5.00;;;0.40;74.90;;;;;;5056561;28;20050;-80
2022/12/14 07:54:45;;;;;;;6.88;5.13;;;0.40;74.90;;;;;;5073978;28;20058;-79
2022/12/14 07:57:11;;;;;;;7.03;5.13;;;0.40;74.90;;;;;;5056527;28;20033;-79
2022/12/14 07:59:37;;;;;;;7.88;5.00;;;0.30;74.80;;;;;;5055586;28;20032;-79
2022/12/14 08:02:03;;;;;;;6.75;4.80;;;0.30;74.80;;;;;;5038864;28;20044;-78
2022/12/14 08:04:28;;;;;;;7.57;5.45;;;0.30;74.80;;;;;;5056584;28;20059;-79
2022/12/14 08:06:54;;;;;;;7.72;4.82;;;0.30;74.90;;;;;;5072675;28;20028;-78
2022/12/14 08:09:20;;;;;;;6.78;5.10;;;0.30;74.90;;;;;;5072263;28;20035;-79
2022/12/14 08:11:46;;;;;;;6.78;4.57;;;0.20;74.80;;;;;;5039636;28;20040;-80
2022/12/14 08:14:16;;;;;;;6.45;5.13;;;0.30;74.90;;;;;;5071894;28;20060;-79
2022/12/14 08:16:43;;;;;;;7.15;4.75;;;0.30;74.90;;;;;;5074660;28;20094;-79
2022/12/14 08:19:10;;;;;;;8.60;5.00;;;0.20;74.80;;;;;;5060528;28;20040;-79
2022/12/14 08:21:36;;;;;;;7.40;5.25;;;0.20;74.80;;;;;;5076696;28;20132;-80
2022/12/14 08:24:02;;;;;;;7.18;5.47;;;0.20;74.80;;;;;;5059805;28;20453;-80
2022/12/14 08:26:28;;;;;;;7.57;4.85;;;0.20;74.80;;;;;;5076255;28;20031;-79
2022/12/14 08:28:55;;;;;;;8.50;5.53;;;0.20;74.80;;;;;;5059649;28;20024;-80
2022/12/14 08:31:23;;;;;;;6.38;5.07;;;0.20;74.80;;;;;;5076267;28;20074;-81
2022/12/14 08:33:49;;;;;;;8.80;5.65;;;0.20;74.80;;;;;;5042969;28;20028;-80
2022/12/14 08:36:21;;;;;;;8.20;5.65;;;0.20;74.80;;;;;;5077485;28;20021;-80
2022/12/14 08:38:58;;;;;;;7.40;5.03;;;0.10;74.80;;;;;;5060213;28;20027;-78
2022/12/14 08:41:26;;;;;;;7.78;5.47;;;0.20;74.80;;;;;;5059128;28;20032;-79
2022/12/14 08:43:54;;;;;;;8.32;5.57;;;0.10;74.80;;;;;;5058942;28;20027;-79
2022/12/14 08:46:20;;;;;;;12.02;6.18;;;0.10;74.70;;;;;;5076567;28;20021;-79
2022/12/14 08:48:49;;;;;;;13.25;6.65;;;0.10;74.70;;;;;;5077066;28;20051;-79
2022/12/14 08:51:14;;;;;;;14.43;7.55;;;0.10;74.80;;;;;;5075924;28;20032;-79
2022/12/14 08:53:40;;;;;;;12.27;7.35;;;0.10;74.70;;;;;;5076216;28;20376;-79
2022/12/14 08:56:09;;;;;;;9.23;6.20;;;0.10;74.70;;;;;;5076447;28;20386;-78
2022/12/14 08:58:35;;;;;;;19.77;8.60;;;0.20;74.70;;;;;;5058894;28;20028;-79
2022/12/14 09:01:07;;;;;;;10.70;6.68;;;0.10;74.60;;;;;;5076259;28;20469;-79
2022/12/14 09:03:33;;;;;;;9.00;6.75;;;0.20;74.60;;;;;;5059721;28;20032;-83
2022/12/14 09:06:04;;;;;;;10.45;6.72;;;0.10;74.60;;;;;;5059584;28;20107;-81
2022/12/14 09:08:31;;;;;;;9.93;6.03;;;0.10;74.60;;;;;;5059309;28;20123;-78
2022/12/14 09:10:56;;;;;;;10.30;6.78;;;0.00;74.60;;;;;;5076758;28;20032;-78
2022/12/14 09:13:22;;;;;;;9.23;6.35;;;0.10;74.60;;;;;;5074751;28;20097;-77
2022/12/14 09:16:04;;;;;;;11.60;7.38;;;0.10;74.60;;;;;;5074774;28;20064;-77
2022/12/14 09:18:30;;;;;;;10.05;6.43;;;0.10;74.60;;;;;;5076918;28;20055;-77
2022/12/14 09:20:56;;;;;;;10.10;6.05;;;0.00;74.60;;;;;;5024932;28;20025;-76
2022/12/14 09:23:24;;;;;;;8.88;5.90;;;0.00;74.60;;;;;;5075757;28;20086;-76
2022/12/14 09:26:15;;;;;;;9.05;6.20;;;0.00;74.60;;;;;;5057858;28;20035;-75
2022/12/14 09:28:44;;;;;;;8.85;6.10;;;0.00;74.60;;;;;;5068737;28;20101;-77
2022/12/14 09:31:12;;;;;;;8.77;6.07;;;0.00;74.60;;;;;;5074862;28;20028;-77
2022/12/14 09:33:38;;;;;;;9.02;5.72;;;0.00;74.50;;;;;;5075010;28;20028;-77
2022/12/14 09:36:06;;;;;;;8.77;6.15;;;0.00;74.50;;;;;;5057936;28;20028;-77
2022/12/14 09:38:35;;;;;;;9.07;6.32;;;0.00;74.60;;;;;;5075212;28;20024;-77
2022/12/14 09:41:03;;;;;;;8.73;5.90;;;0.00;74.60;;;;;;5057435;28;20028;-77
2022/12/14 09:44:00;;;;;;;9.27;6.25;;;0.00;74.50;;;;;;5074364;28;20473;-76
2022/12/14 09:46:49;;;;;;;8.55;6.53;;;0.00;74.60;;;;;;5053790;28;20072;-76
2022/12/14 09:49:33;;;;;;;7.57;5.45;;;0.00;74.50;;;;;;5058154;28;20045;-77
2022/12/14 09:52:02;;;;;;;8.57;5.95;;;0.00;74.50;;;;;;5073909;28;20113;-76
2022/12/14 09:54:32;;;;;;;8.48;5.97;;;0.00;74.50;;;;;;5040609;28;20534;-77
2022/12/14 09:57:07;;;;;;;7.57;5.60;;;0.00;74.60;;;;;;5057045;28;20083;-76
2022/12/14 09:59:33;;;;;;;8.43;5.63;;;0.00;74.50;;;;;;5074115;28;20112;-76
2022/12/14 10:02:20;;;;;;;10.68;6.20;;;0.00;74.50;;;;;;5074632;28;20465;-76
2022/12/14 10:05:10;;;;;;;7.78;5.70;;;0.00;74.60;;;;;;5041283;28;20097;-77
2022/12/14 10:08:04;;;;;;;7.47;5.50;;;0.00;74.50;;;;;;5057164;28;20059;-77
2022/12/14 10:10:41;;;;;;;8.82;5.75;;;0.00;74.50;;;;;;5073365;28;20028;-76
2022/12/14 10:13:26;;;;;;;8.27;6.45;;;0.00;74.50;;;;;;5057843;28;20036;-76
2022/12/14 10:16:07;;;;;;;7.95;5.80;;;0.00;74.50;;;;;;5073798;28;20032;-76
2022/12/14 10:18:56;;;;;;;9.55;6.22;;;0.00;74.50;;;;;;5073032;28;20117;-77
2022/12/14 10:21:24;;;;;;;8.40;6.00;;;0.00;74.50;;;;;;5056163;28;20044;-77
2022/12/14 10:23:57;;;;;;;7.85;5.13;;;0.00;74.50;;;;;;5056851;28;20056;-76
2022/12/14 10:26:31;;;;;;;7.57;5.60;;;0.00;74.50;;;;;;5074893;28;20040;-77
2022/12/14 10:29:05;;;;;;;9.10;6.15;;;0.10;74.60;;;;;;5073407;28;20031;-77
2022/12/14 10:31:46;;;;;;;8.30;6.23;;;0.10;74.50;;;;;;5074279;28;20365;-79
2022/12/14 10:34:23;;;;;;;10.00;6.20;;;0.10;74.50;;;;;;5074720;28;20281;-76
2022/12/14 10:37:13;;;;;;;7.97;5.57;;;0.10;74.50;;;;;;5056815;28;20108;-78
2022/12/14 10:39:54;;;;;;;8.52;5.65;;;0.10;74.50;;;;;;5073111;28;20403;-78
2022/12/14 10:42:19;;;;;;;8.07;5.45;;;0.00;74.50;;;;;;5073089;28;20086;-77
2022/12/14 10:45:17;;;;;;;10.20;5.95;;;0.10;74.50;;;;;;5074057;28;20385;-77
2022/12/14 10:47:51;;;;;;;7.95;5.28;;;0.10;74.50;;;;;;5056736;28;20104;-77
2022/12/14 10:50:36;;;;;;;7.17;5.37;;;0.10;74.50;;;;;;5056814;28;20029;-77
2022/12/14 10:53:04;;;;;;;8.57;6.10;;;0.10;74.50;;;;;;5074484;28;20290;-77
2022/12/14 10:55:34;;;;;;;7.50;5.35;;;0.10;74.50;;;;;;5039979;28;20032;-77
2022/12/14 10:58:00;;;;;;;8.57;6.28;;;0.10;74.50;;;;;;5074534;28;20449;-77
2022/12/14 11:00:26;;;;;;;7.88;5.82;;;0.10;74.50;;;;;;5056170;28;20029;-75
2022/12/14 11:02:57;;;;;;;7.72;5.45;;;0.10;74.50;;;;;;5056151;28;20045;-77
2022/12/14 11:05:54;;;;;;;8.27;5.82;;;0.20;74.60;;;;;;5072815;28;20423;-77
2022/12/14 11:08:41;;;;;;;7.93;5.60;;;0.20;74.60;;;;;;5056399;28;20027;-78
2022/12/14 11:11:24;;;;;;;8.27;5.60;;;0.20;74.50;;;;;;5055723;28;20028;-77
2022/12/14 11:14:14;;;;;;;7.53;5.70;;;0.20;74.60;;;;;;5056340;28;20032;-78
2022/12/14 11:16:40;;;;;;;6.95;5.45;;;0.20;74.50;;;;;;5055976;28;20194;-76
2022/12/14 11:19:36;;;;;;;8.43;5.90;;;0.20;74.50;;;;;;5040016;28;20482;-77
2022/12/14 11:22:10;;;;;;;7.82;5.65;;;0.20;74.60;;;;;;5043095;28;20481;-77
2022/12/14 11:24:44;;;;;;;7.80;5.53;;;0.20;74.60;;;;;;5074382;28;20029;-76
2022/12/14 11:27:11;;;;;;;8.02;5.28;;;0.20;74.50;;;;;;5055812;28;20361;-76
2022/12/14 11:29:38;;;;;;;7.75;5.53;;;0.20;74.50;;;;;;5072225;28;20021;-78
2022/12/14 11:32:05;;;;;;;8.05;6.25;;;0.20;74.50;;;;;;5055624;28;20037;-77
2022/12/14 11:34:38;;;;;;;8.77;5.25;;;0.20;74.50;;;;;;5055458;28;20029;-77
2022/12/14 11:37:10;;;;;;;8.05;5.53;;;0.30;74.60;;;;;;5073712;28;20096;-78
2022/12/14 11:39:38;;;;;;;8.20;5.53;;;0.30;74.60;;;;;;5072874;28;20055;-80
2022/12/14 11:42:05;;;;;;;8.63;5.82;;;0.30;74.60;;;;;;5073288;28;20071;-78
2022/12/14 11:44:37;;;;;;;8.63;5.88;;;0.30;74.60;;;;;;5039643;28;20025;-78
2022/12/14 11:47:20;;;;;;;8.68;5.78;;;0.30;74.60;;;;;;5073079;28;20033;-78
2022/12/14 11:49:53;;;;;;;8.00;5.78;;;0.30;74.60;;;;;;5073128;28;20456;-78
2022/12/14 11:52:24;;;;;;;8.77;5.90;;;0.30;74.60;;;;;;5073019;28;20544;-77
2022/12/14 11:54:56;;;;;;;7.78;5.40;;;0.30;74.60;;;;;;5073259;28;20029;-75
2022/12/14 11:57:26;;;;;;;8.82;6.07;;;0.40;74.60;;;;;;5071651;28;20074;-77
2022/12/14 12:00:01;;;;;;;7.70;5.10;;;0.30;74.60;;;;;;5071996;28;20035;-78
2022/12/14 12:02:35;;;;;;;8.40;6.05;;;0.40;74.60;;;;;;5055370;28;20135;-78
2022/12/14 12:05:10;;;;;;;7.50;5.65;;;0.40;74.60;;;;;;5055590;28;20433;-75
2022/12/14 12:07:49;;;;;;;8.70;6.18;;;0.40;74.60;;;;;;5056838;28;20604;-76
2022/12/14 12:10:26;;;;;;;8.73;5.90;;;0.40;74.60;;;;;;5073999;28;20029;-79
2022/12/14 12:12:59;;;;;;;9.13;5.72;;;0.40;74.60;;;;;;5056837;28;20032;-77
2022/12/14 12:15:32;;;;;;;8.52;6.10;;;0.40;74.50;;;;;;5072310;28;20032;-78
2022/12/14 12:18:23;;;;;;;9.25;5.78;;;0.50;74.60;;;;;;5035491;28;20140;-77
2022/12/14 12:20:57;;;;;;;8.55;5.68;;;0.50;74.50;;;;;;5050647;28;20094;-79
2022/12/14 12:23:36;;;;;;;7.70;5.70;;;0.60;74.60;;;;;;5054031;28;20119;-78
2022/12/14 12:26:14;;;;;;;7.15;5.47;;;0.50;74.50;;;;;;5052960;28;20057;-77
2022/12/14 12:28:46;;;;;;;7.13;5.20;;;0.60;74.60;;;;;;5068535;28;20059;-77
2022/12/14 12:31:21;;;;;;;8.65;5.82;;;0.60;74.50;;;;;;5053801;28;20029;-78
2022/12/14 12:34:13;;;;;;;8.32;5.70;;;0.60;74.50;;;;;;5053198;28;20032;-78
2022/12/14 12:36:39;;;;;;;7.15;5.90;;;0.60;74.60;;;;;;5052205;28;20136;-77
2022/12/14 12:39:17;;;;;;;8.07;5.38;;;0.70;74.50;;;;;;5002943;28;20116;-77
2022/12/14 12:42:10;;;;;;;8.70;5.93;;;0.70;74.50;;;;;;5052691;28;20048;-77
2022/12/14 12:44:49;;;;;;;7.97;5.80;;;0.70;74.50;;;;;;5050385;28;20037;-77
2022/12/14 12:47:21;;;;;;;8.75;5.53;;;0.80;74.60;;;;;;5053246;28;20024;-77
2022/12/14 12:49:47;;;;;;;7.18;5.10;;;0.80;74.60;;;;;;5052418;28;20021;-77
2022/12/14 12:52:26;;;;;;;7.60;5.20;;;0.80;74.60;;;;;;5035453;28;20051;-78
2022/12/14 12:55:23;;;;;;;7.65;5.50;;;0.80;74.60;;;;;;5051921;28;20374;-77
2022/12/14 12:57:55;;;;;;;7.70;5.85;;;0.90;74.60;;;;;;5043283;28;20095;-76
2022/12/14 13:00:26;;;;;;;7.85;6.07;;;0.90;74.40;;;;;;5053429;28;20082;-76
2022/12/14 13:03:01;;;;;;;7.72;5.38;;;0.90;74.40;;;;;;5055100;28;20044;-77
2022/12/14 13:05:29;;;;;;;8.07;6.07;;;0.90;74.40;;;;;;5055035;28;20033;-76
2022/12/14 13:07:57;;;;;;;8.95;5.72;;;1.00;74.40;;;;;;5054999;28;20078;-77
2022/12/14 13:10:43;;;;;;;7.70;5.57;;;1.00;74.40;;;;;;5038867;28;20057;-77
2022/12/14 13:13:13;;;;;;;7.97;5.70;;;1.00;74.40;;;;;;5055411;28;20436;-76
2022/12/14 13:15:53;;;;;;;7.80;5.75;;;1.10;74.40;;;;;;5055880;28;20025;-76
2022/12/14 13:18:34;;;;;;;6.90;5.35;;;1.10;74.40;;;;;;5042091;28;20103;-77
2022/12/14 13:21:06;;;;;;;7.90;5.30;;;1.10;74.30;;;;;;5034440;28;20041;-77
2022/12/14 13:23:32;;;;;;;7.88;5.90;;;1.20;74.90;;;;;;5035822;28;20045;-77
2022/12/14 13:26:32;;;;;;;8.07;5.10;;;1.20;74.30;;;;;;5001576;28;20029;-76
2022/12/14 13:29:18;;;;;;;8.95;5.82;;;1.20;74.40;;;;;;5034922;28;20104;-76
2022/12/14 13:32:09;;;;;;;7.68;5.78;;;1.20;74.50;;;;;;5035370;28;20029;-77
2022/12/14 13:34:53;;;;;;;7.60;5.82;;;1.20;74.50;;;;;;5018350;28;20037;-78
2022/12/14 13:37:25;;;;;;;7.53;5.65;;;1.20;74.60;;;;;;5034989;28;20048;-79
2022/12/14 13:40:18;;;;;;;7.47;5.20;;;1.20;74.60;;;;;;5018813;28;20080;-78
2022/12/14 13:43:04;;;;;;;6.80;5.13;;;1.20;74.60;;;;;;5036613;28;20029;-80